Time;durP1;ratioP1;P1;durP2;ratioP2;P2;SDS_P1;SDS_P2;PMS_P1;PMS_P2;Temp;Humidity;BMP_temperature;BMP_pressure;BME280_temperature;BME280_humidity;BME280_pressure;Samples;Min_cycle;Max_cycle;Signal;HPM_P1;HPM_P2
2022/03/12 00:01:55;;;;;;;4.93;4.00;;;15.30;97.20;;;;;;4998026;28;20260;-40
2022/03/12 00:04:23;;;;;;;4.70;3.50;;;15.30;97.10;;;;;;4994574;28;20221;-40
2022/03/12 00:06:50;;;;;;;4.72;3.40;;;15.20;97.10;;;;;;5023427;28;20206;-40
2022/03/12 00:09:43;;;;;;;6.57;4.00;;;15.20;97.10;;;;;;4999317;28;20221;-39
2022/03/12 00:12:11;;;;;;;4.00;3.55;;;15.20;97.20;;;;;;5023245;28;20244;-39
2022/03/12 00:14:45;;;;;;;4.88;4.38;;;15.10;97.10;;;;;;5006781;28;20306;-40
2022/03/12 00:17:13;;;;;;;3.97;3.47;;;15.10;97.10;;;;;;5012352;28;20247;-40
2022/03/12 00:19:41;;;;;;;5.78;3.60;;;15.10;97.10;;;;;;5012587;28;20212;-39
2022/03/12 00:22:09;;;;;;;3.42;3.13;;;15.10;97.30;;;;;;5018864;28;20327;-40
2022/03/12 00:24:41;;;;;;;3.60;3.30;;;15.00;97.10;;;;;;5009416;28;20224;-40
2022/03/12 00:27:11;;;;;;;4.10;3.42;;;15.00;97.10;;;;;;5017020;28;20244;-39
2022/03/12 00:29:44;;;;;;;3.55;3.15;;;15.00;97.20;;;;;;5020941;28;20574;-39
2022/03/12 00:32:14;;;;;;;4.03;3.25;;;14.90;97.20;;;;;;5009427;28;20602;-40
2022/03/12 00:34:44;;;;;;;3.65;3.17;;;14.90;97.10;;;;;;5008660;28;20292;-40
2022/03/12 00:37:16;;;;;;;4.00;3.47;;;14.90;97.20;;;;;;5016972;28;20291;-40
2022/03/12 00:39:47;;;;;;;3.97;3.38;;;14.80;97.20;;;;;;5011678;28;20694;-39
2022/03/12 00:42:15;;;;;;;3.35;2.88;;;14.80;97.30;;;;;;5002731;28;20301;-39
2022/03/12 00:44:44;;;;;;;3.70;3.00;;;14.80;97.20;;;;;;5020120;28;20745;-39
2022/03/12 00:47:12;;;;;;;3.13;2.83;;;14.70;97.20;;;;;;5020881;28;20680;-40
2022/03/12 00:49:39;;;;;;;3.55;2.97;;;14.70;97.10;;;;;;5009577;28;20688;-39
2022/03/12 00:52:11;;;;;;;4.13;3.10;;;14.70;97.10;;;;;;5003628;28;20220;-40
2022/03/12 00:54:39;;;;;;;3.58;3.00;;;14.70;97.10;;;;;;4994081;28;20308;-39
2022/03/12 00:57:11;;;;;;;3.85;3.17;;;14.70;97.20;;;;;;4970817;28;20289;-40
2022/03/12 00:59:39;;;;;;;3.47;3.17;;;14.60;97.20;;;;;;4973286;28;20302;-40
2022/03/12 01:02:08;;;;;;;3.42;3.13;;;14.60;97.20;;;;;;4984264;28;20258;-40
2022/03/12 01:04:36;;;;;;;2.72;2.53;;;14.60;97.20;;;;;;4971983;28;20234;-40
2022/03/12 01:07:05;;;;;;;4.45;3.13;;;14.60;97.20;;;;;;4968123;28;20570;-39
2022/03/12 01:09:38;;;;;;;3.35;3.05;;;14.50;97.20;;;;;;4973646;28;20622;-40
2022/03/12 01:12:09;;;;;;;3.65;3.33;;;14.50;97.20;;;;;;4987041;28;20305;-40
2022/03/12 01:14:38;;;;;;;3.17;2.88;;;14.50;97.40;;;;;;4978387;28;20213;-39
2022/03/12 01:17:06;;;;;;;3.05;2.75;;;14.50;97.20;;;;;;4976164;28;20222;-40
2022/03/12 01:19:43;;;;;;;2.97;2.67;;;14.50;97.20;;;;;;4975594;28;20247;-40
2022/03/12 01:22:15;;;;;;;3.30;2.80;;;14.40;97.30;;;;;;4973233;28;20202;-40
2022/03/12 01:24:42;;;;;;;3.58;3.08;;;14.40;97.20;;;;;;4988816;28;20729;-40
2022/03/12 01:27:15;;;;;;;3.45;3.13;;;14.40;97.20;;;;;;4977654;28;20326;-40
2022/03/12 01:29:45;;;;;;;3.08;2.78;;;14.40;97.20;;;;;;4982023;28;20198;-40
2022/03/12 01:32:12;;;;;;;2.90;2.53;;;14.40;97.30;;;;;;4983307;28;20249;-40
2022/03/12 01:34:42;;;;;;;3.03;2.72;;;14.40;97.20;;;;;;4975160;28;20253;-40
2022/03/12 01:37:19;;;;;;;3.22;2.92;;;14.30;97.20;;;;;;4977425;28;20712;-40
2022/03/12 01:39:51;;;;;;;2.65;2.45;;;14.30;97.30;;;;;;4986872;28;20217;-40
2022/03/12 01:42:21;;;;;;;2.80;2.30;;;14.20;97.30;;;;;;4982096;28;20231;-40
2022/03/12 01:44:51;;;;;;;3.40;2.53;;;14.20;97.20;;;;;;4977212;28;20246;-40
2022/03/12 01:47:19;;;;;;;2.95;2.45;;;14.20;97.30;;;;;;4967004;28;20203;-40
2022/03/12 01:49:48;;;;;;;2.55;2.35;;;14.20;97.40;;;;;;4978447;28;20211;-40
2022/03/12 01:52:18;;;;;;;4.45;2.50;;;14.20;97.30;;;;;;4973246;28;20190;-40
2022/03/12 01:54:45;;;;;;;3.67;2.60;;;14.10;97.60;;;;;;5012256;28;20219;-40
2022/03/12 01:57:13;;;;;;;2.50;2.30;;;14.10;97.20;;;;;;5018034;28;20197;-40
2022/03/12 01:59:43;;;;;;;3.25;2.75;;;14.10;97.30;;;;;;5018522;28;20712;-40
2022/03/12 02:02:13;;;;;;;2.70;2.30;;;14.10;97.40;;;;;;4998451;28;20583;-40
2022/03/12 02:04:51;;;;;;;3.03;2.50;;;14.10;97.30;;;;;;5023816;28;20221;-40
2022/03/12 02:07:21;;;;;;;2.42;2.22;;;14.10;97.40;;;;;;5012016;28;20200;-40
2022/03/12 02:09:50;;;;;;;3.67;2.22;;;14.10;97.40;;;;;;5019543;28;20205;-40
2022/03/12 02:12:20;;;;;;;3.15;2.50;;;14.00;97.30;;;;;;5016622;28;20201;-40
2022/03/12 02:14:50;;;;;;;2.83;2.33;;;14.00;97.40;;;;;;5018692;28;20690;-40
2022/03/12 02:17:17;;;;;;;2.53;2.08;;;14.00;97.40;;;;;;5018069;28;20321;-40
2022/03/12 02:19:44;;;;;;;3.03;2.42;;;14.00;97.30;;;;;;5019113;28;20196;-40
2022/03/12 02:22:15;;;;;;;2.55;2.35;;;14.00;97.40;;;;;;5026078;28;20244;-40
2022/03/12 02:24:47;;;;;;;2.83;2.58;;;14.00;97.50;;;;;;5025440;28;20215;-40
2022/03/12 02:27:18;;;;;;;2.90;2.65;;;13.90;97.50;;;;;;5015347;28;20226;-40
2022/03/12 02:29:46;;;;;;;3.20;2.67;;;13.90;97.40;;;;;;5020590;28;20282;-40
2022/03/12 02:32:18;;;;;;;2.90;2.60;;;13.90;97.30;;;;;;5017881;28;20213;-40
2022/03/12 02:34:47;;;;;;;3.40;2.65;;;13.90;97.50;;;;;;5007984;28;20216;-40
2022/03/12 02:37:30;;;;;;;2.90;2.67;;;13.90;97.50;;;;;;5020575;28;20208;-40
2022/03/12 02:40:05;;;;;;;2.95;2.72;;;13.90;97.50;;;;;;5006611;28;20558;-40
2022/03/12 02:42:38;;;;;;;3.50;2.90;;;13.90;97.40;;;;;;4999169;28;20216;-40
2022/03/12 02:45:07;;;;;;;3.55;3.05;;;13.80;97.30;;;;;;5022628;28;20257;-39
2022/03/12 02:47:43;;;;;;;3.13;2.75;;;13.80;97.40;;;;;;5007265;28;20210;-40
2022/03/12 02:50:15;;;;;;;4.45;3.05;;;13.80;97.50;;;;;;5015583;28;20676;-40
2022/03/12 02:52:44;;;;;;;3.35;3.05;;;13.80;97.60;;;;;;5016982;28;20270;-40
2022/03/12 02:55:33;;;;;;;3.28;2.97;;;13.80;97.50;;;;;;5000644;28;20237;-40
2022/03/12 02:58:09;;;;;;;3.47;3.15;;;13.80;97.70;;;;;;5012934;28;20268;-40
2022/03/12 03:00:38;;;;;;;3.65;2.83;;;13.80;97.50;;;;;;5013522;28;20680;-40
2022/03/12 03:03:06;;;;;;;4.25;3.05;;;13.70;97.50;;;;;;5024533;28;20288;-40
2022/03/12 03:05:47;;;;;;;3.60;3.28;;;13.70;97.50;;;;;;5015781;28;20275;-40
2022/03/12 03:08:20;;;;;;;3.55;3.13;;;13.70;97.80;;;;;;5012257;28;20671;-40
2022/03/12 03:10:57;;;;;;;3.40;3.10;;;13.70;97.60;;;;;;5016288;28;20204;-41
2022/03/12 03:13:44;;;;;;;3.60;3.08;;;13.70;97.70;;;;;;5025037;28;20213;-40
2022/03/12 03:16:21;;;;;;;3.17;2.88;;;13.70;97.70;;;;;;5020020;28;20636;-40
2022/03/12 03:18:52;;;;;;;3.83;3.33;;;13.70;97.50;;;;;;5021162;28;20212;-40
2022/03/12 03:21:24;;;;;;;3.57;3.27;;;13.70;97.60;;;;;;5012386;28;20571;-40
2022/03/12 03:24:00;;;;;;;3.65;3.35;;;13.70;97.90;;;;;;5020071;28;20217;-40
2022/03/12 03:26:39;;;;;;;4.75;3.40;;;13.60;97.60;;;;;;5019099;28;20287;-40
2022/03/12 03:29:07;;;;;;;4.75;3.58;;;13.60;97.70;;;;;;5017321;28;20201;-40
2022/03/12 03:31:37;;;;;;;3.50;3.20;;;13.60;97.50;;;;;;5020306;28;20244;-40
2022/03/12 03:34:04;;;;;;;3.53;3.22;;;13.60;97.70;;;;;;5024678;28;20292;-40
2022/03/12 03:36:31;;;;;;;3.58;3.28;;;13.50;97.50;;;;;;5010172;28;20223;-40
2022/03/12 03:38:59;;;;;;;4.77;3.20;;;13.50;97.60;;;;;;5017445;28;20655;-30
2022/03/12 03:41:26;;;;;;;3.75;3.15;;;13.50;97.60;;;;;;5014798;28;20217;-30
2022/03/12 03:43:53;;;;;;;5.60;3.30;;;13.50;97.60;;;;;;4994359;28;20221;-30
2022/03/12 03:46:23;;;;;;;4.15;3.33;;;13.50;97.70;;;;;;5003632;28;20200;-30
2022/03/12 03:48:52;;;;;;;4.45;3.13;;;13.50;97.70;;;;;;5021459;28;20597;-30
2022/03/12 03:51:24;;;;;;;3.70;3.40;;;13.40;97.70;;;;;;5015912;28;20611;-30
2022/03/12 03:53:51;;;;;;;4.60;3.70;;;13.40;97.60;;;;;;5012909;28;20292;-30
2022/03/12 03:56:21;;;;;;;4.40;3.45;;;13.40;97.60;;;;;;5017124;28;20218;-30
2022/03/12 03:58:58;;;;;;;3.80;3.03;;;13.40;97.70;;;;;;5025237;28;20233;-30
2022/03/12 04:01:28;;;;;;;4.07;3.67;;;13.40;98.00;;;;;;5018195;28;20598;-30
2022/03/12 04:04:01;;;;;;;6.00;4.07;;;13.30;97.60;;;;;;5021769;28;20267;-30
2022/03/12 04:06:28;;;;;;;3.88;3.20;;;13.30;97.60;;;;;;4998831;28;20223;-30
2022/03/12 04:08:55;;;;;;;5.23;3.70;;;13.30;97.60;;;;;;5009014;28;20232;-30
2022/03/12 04:11:25;;;;;;;4.03;3.53;;;13.30;97.70;;;;;;5014045;28;20671;-29
2022/03/12 04:13:57;;;;;;;5.63;3.92;;;13.20;97.60;;;;;;5009197;28;20240;-30
2022/03/12 04:16:24;;;;;;;4.82;3.83;;;13.20;97.60;;;;;;5014311;28;20272;-30
2022/03/12 04:18:54;;;;;;;4.00;3.63;;;13.20;97.70;;;;;;5019047;28;20667;-30
2022/03/12 04:21:21;;;;;;;4.30;3.55;;;13.10;97.60;;;;;;5011783;28;20563;-30
2022/03/12 04:23:49;;;;;;;5.35;3.75;;;13.10;97.60;;;;;;5016996;28;20252;-30
2022/03/12 04:26:17;;;;;;;4.23;3.33;;;13.10;97.70;;;;;;5016794;28;20252;-30
2022/03/12 04:28:47;;;;;;;7.35;3.70;;;13.10;97.60;;;;;;5015724;28;20192;-30
2022/03/12 04:31:14;;;;;;;4.85;3.80;;;13.00;97.70;;;;;;4996725;28;20638;-30
2022/03/12 04:33:41;;;;;;;4.15;3.60;;;13.00;97.70;;;;;;5010422;28;20287;-30
2022/03/12 04:36:13;;;;;;;4.03;3.42;;;13.00;97.70;;;;;;5016157;28;20646;-30
2022/03/12 04:38:41;;;;;;;5.10;3.85;;;13.00;97.80;;;;;;4995119;28;20324;-30
2022/03/12 04:41:08;;;;;;;4.75;3.90;;;12.90;97.80;;;;;;5019819;28;20778;-30
2022/03/12 04:43:36;;;;;;;4.63;4.03;;;12.90;97.70;;;;;;5014540;28;20266;-30
2022/03/12 04:46:03;;;;;;;5.20;3.83;;;12.90;97.80;;;;;;5004732;28;20248;-30
2022/03/12 04:48:33;;;;;;;5.68;3.90;;;12.90;97.70;;;;;;5016476;28;20205;-29
2022/03/12 04:51:00;;;;;;;5.25;3.78;;;13.00;97.80;;;;;;5019726;28;20221;-30
2022/03/12 04:53:30;;;;;;;4.38;3.63;;;13.00;97.90;;;;;;5023652;28;20620;-30
2022/03/12 04:56:00;;;;;;;3.97;3.58;;;13.00;98.00;;;;;;5023614;28;20201;-30
2022/03/12 04:58:29;;;;;;;4.87;3.87;;;13.00;97.90;;;;;;5013231;28;20240;-30
2022/03/12 05:00:59;;;;;;;4.47;3.40;;;13.00;97.90;;;;;;5021635;28;20205;-30
2022/03/12 05:03:27;;;;;;;4.30;3.53;;;13.00;97.80;;;;;;5014621;28;20205;-30
2022/03/12 05:06:00;;;;;;;5.80;4.00;;;13.00;97.90;;;;;;5018256;28;20581;-30
2022/03/12 05:08:29;;;;;;;5.43;4.40;;;13.00;98.10;;;;;;5022095;28;20217;-30
2022/03/12 05:11:01;;;;;;;5.00;4.20;;;13.00;98.00;;;;;;5013132;28;20205;-30
2022/03/12 05:13:30;;;;;;;5.35;4.15;;;13.00;98.00;;;;;;5018259;28;20900;-30
2022/03/12 05:16:03;;;;;;;5.57;4.22;;;13.00;98.00;;;;;;5014390;28;20208;-30
2022/03/12 05:18:32;;;;;;;8.03;4.83;;;13.00;98.10;;;;;;5015515;28;20209;-30
2022/03/12 05:21:06;;;;;;;5.30;4.30;;;13.00;98.00;;;;;;4998868;28;20205;-30
2022/03/12 05:23:35;;;;;;;4.70;3.63;;;12.90;98.10;;;;;;5014819;28;20201;-29
2022/03/12 05:26:05;;;;;;;4.80;3.90;;;12.90;98.00;;;;;;5011331;28;20237;-30
2022/03/12 05:28:37;;;;;;;5.03;4.07;;;12.90;98.00;;;;;;4998686;28;20259;-30
2022/03/12 05:31:04;;;;;;;4.53;3.80;;;12.90;98.00;;;;;;4997114;28;20320;-30
2022/03/12 05:33:34;;;;;;;7.10;4.73;;;12.80;98.30;;;;;;5000410;28;20233;-30
2022/03/12 05:36:03;;;;;;;6.27;4.67;;;12.80;98.00;;;;;;5022934;28;20212;-30
2022/03/12 05:38:37;;;;;;;4.65;4.10;;;12.80;98.10;;;;;;5022247;28;20444;-30
2022/03/12 05:41:10;;;;;;;6.30;4.20;;;12.80;98.10;;;;;;5011267;28;20673;-30
2022/03/12 05:43:46;;;;;;;6.20;4.40;;;12.80;98.10;;;;;;5020465;28;20223;-30
2022/03/12 05:46:16;;;;;;;5.77;4.33;;;12.80;98.10;;;;;;5015561;28;20239;-30
2022/03/12 05:48:47;;;;;;;5.50;4.13;;;12.80;98.10;;;;;;5028881;28;20207;-30
2022/03/12 05:51:16;;;;;;;6.10;4.40;;;12.70;98.20;;;;;;5023161;28;20253;-30
2022/03/12 05:53:44;;;;;;;4.43;4.03;;;12.70;98.10;;;;;;5007509;28;20239;-39
2022/03/12 05:56:14;;;;;;;6.87;4.40;;;12.60;98.10;;;;;;5030123;28;20213;-39
2022/03/12 05:58:46;;;;;;;6.70;4.65;;;12.60;98.10;;;;;;5018106;28;20209;-39
2022/03/12 06:01:15;;;;;;;5.23;4.33;;;12.60;98.20;;;;;;5015929;28;20224;-39
2022/03/12 06:03:43;;;;;;;8.13;4.75;;;12.60;98.20;;;;;;5004886;28;20258;-39
2022/03/12 06:06:13;;;;;;;6.50;4.40;;;12.60;98.10;;;;;;4984053;28;20316;-39
2022/03/12 06:08:43;;;;;;;7.00;4.03;;;12.60;98.30;;;;;;4997729;28;20794;-39
2022/03/12 06:11:12;;;;;;;5.60;3.90;;;12.50;98.40;;;;;;5016799;28;20226;-39
2022/03/12 06:13:50;;;;;;;8.47;4.43;;;12.50;98.10;;;;;;5014676;28;20233;-40
2022/03/12 06:16:17;;;;;;;6.90;4.63;;;12.50;98.30;;;;;;5006222;28;20362;-39
2022/03/12 06:18:47;;;;;;;6.35;4.28;;;12.40;98.10;;;;;;5026694;28;20316;-39
2022/03/12 06:21:14;;;;;;;7.77;4.90;;;12.40;98.10;;;;;;5027372;28;20208;-39
2022/03/12 06:23:41;;;;;;;4.87;4.00;;;12.40;98.20;;;;;;5025006;28;20601;-40
2022/03/12 06:26:15;;;;;;;5.77;3.87;;;12.40;98.20;;;;;;5027187;28;20710;-39
2022/03/12 06:28:45;;;;;;;7.43;4.57;;;12.40;98.20;;;;;;5023497;28;20201;-39
2022/03/12 06:31:15;;;;;;;6.80;4.50;;;12.40;98.30;;;;;;4998421;28;20194;-40
2022/03/12 06:33:45;;;;;;;7.20;3.70;;;12.40;98.20;;;;;;5001883;28;20794;-40
2022/03/12 06:36:13;;;;;;;5.97;4.03;;;12.40;98.30;;;;;;5018459;28;20233;-39
2022/03/12 06:38:43;;;;;;;8.30;4.28;;;12.30;98.20;;;;;;5018243;28;20213;-40
2022/03/12 06:41:10;;;;;;;7.53;4.33;;;12.30;98.20;;;;;;5023412;28;20288;-39
2022/03/12 06:43:45;;;;;;;6.70;4.13;;;12.30;98.30;;;;;;5000461;28;20221;-40
2022/03/12 06:46:17;;;;;;;6.23;3.67;;;12.30;98.30;;;;;;5018419;28;20217;-39
2022/03/12 06:48:45;;;;;;;6.03;4.10;;;12.30;98.20;;;;;;5000415;28;20201;-39
2022/03/12 06:51:14;;;;;;;4.93;3.80;;;12.30;98.30;;;;;;5022383;28;20299;-39
2022/03/12 06:53:42;;;;;;;6.90;4.10;;;12.30;98.30;;;;;;5019837;28;20256;-39
2022/03/12 06:56:15;;;;;;;6.17;3.80;;;12.30;98.30;;;;;;5018268;28;20204;-40
2022/03/12 06:58:42;;;;;;;6.70;3.60;;;12.40;98.30;;;;;;5001933;28;20303;-39
2022/03/12 07:01:13;;;;;;;7.40;4.10;;;12.40;98.40;;;;;;5017160;28;20248;-39
2022/03/12 07:03:44;;;;;;;5.30;3.63;;;12.40;98.40;;;;;;5010580;28;20201;-40
2022/03/12 07:06:11;;;;;;;5.90;3.60;;;12.40;98.50;;;;;;5019055;28;20434;-39
2022/03/12 07:08:38;;;;;;;5.97;3.33;;;12.40;98.40;;;;;;5012005;28;20593;-39
2022/03/12 07:11:06;;;;;;;6.47;3.47;;;12.40;98.40;;;;;;5014645;28;20197;-39
2022/03/12 07:13:36;;;;;;;5.87;3.33;;;12.40;98.40;;;;;;4995655;28;20279;-39
2022/03/12 07:16:08;;;;;;;8.23;3.90;;;12.50;98.50;;;;;;5019931;28;20741;-39
2022/03/12 07:18:41;;;;;;;5.07;3.40;;;12.50;98.50;;;;;;5024908;28;20247;-42
2022/03/12 07:21:08;;;;;;;6.70;3.38;;;12.50;98.50;;;;;;5019882;28;20200;-39
2022/03/12 07:23:37;;;;;;;5.07;3.27;;;12.50;98.50;;;;;;5015925;28;20202;-40
2022/03/12 07:26:07;;;;;;;5.82;3.28;;;12.50;98.50;;;;;;5016993;28;20324;-39
2022/03/12 07:28:34;;;;;;;6.17;3.40;;;12.60;98.50;;;;;;5004002;28;20216;-39
2022/03/12 07:31:02;;;;;;;5.63;3.30;;;12.60;98.50;;;;;;5020147;28;20251;-39
2022/03/12 07:33:29;;;;;;;6.73;2.90;;;12.60;98.50;;;;;;5019318;28;20679;-39
2022/03/12 07:36:01;;;;;;;5.90;3.25;;;12.60;98.50;;;;;;5023738;28;20220;-38
2022/03/12 07:38:32;;;;;;;7.93;3.57;;;12.60;98.60;;;;;;5016939;28;21097;-39
2022/03/12 07:41:01;;;;;;;5.00;3.30;;;12.60;98.50;;;;;;5018622;28;20263;-39
2022/03/12 07:43:31;;;;;;;6.13;3.40;;;12.70;98.60;;;;;;4994815;28;20214;-39
2022/03/12 07:46:03;;;;;;;5.77;2.90;;;12.70;98.60;;;;;;5025345;28;20217;-39
2022/03/12 07:48:33;;;;;;;5.57;3.03;;;12.70;98.60;;;;;;5018347;28;20201;-39
2022/03/12 07:51:09;;;;;;;5.47;3.23;;;12.70;98.60;;;;;;5007902;28;20226;-39
2022/03/12 07:53:42;;;;;;;4.57;3.03;;;12.70;98.70;;;;;;4983503;28;20233;-39
2022/03/12 07:56:10;;;;;;;6.38;2.85;;;12.80;98.70;;;;;;5003716;28;20210;-39
2022/03/12 07:58:37;;;;;;;6.88;2.67;;;12.80;98.60;;;;;;4992977;28;20284;-39
2022/03/12 08:01:08;;;;;;;4.75;3.10;;;12.80;98.60;;;;;;4991586;28;20219;-40
2022/03/12 08:03:39;;;;;;;4.68;2.88;;;12.90;98.70;;;;;;4989944;28;20290;-39
2022/03/12 08:06:09;;;;;;;4.30;2.75;;;12.90;98.80;;;;;;4997182;28;20242;-39
2022/03/12 08:08:42;;;;;;;4.88;2.50;;;12.90;98.80;;;;;;5004988;28;20640;-39
2022/03/12 08:11:25;;;;;;;5.23;2.97;;;12.90;98.70;;;;;;4989834;28;20213;-39
2022/03/12 08:13:55;;;;;;;4.60;2.70;;;13.00;98.80;;;;;;4989034;28;20751;-40
2022/03/12 08:16:28;;;;;;;6.17;2.77;;;13.00;98.80;;;;;;4989247;28;20226;-39
2022/03/12 08:18:59;;;;;;;7.03;3.10;;;13.00;98.80;;;;;;4982841;28;20220;-40
2022/03/12 08:21:26;;;;;;;4.07;2.63;;;13.10;99.00;;;;;;4989778;28;20256;-39
2022/03/12 08:23:54;;;;;;;6.85;2.50;;;13.10;98.80;;;;;;4992723;28;20764;-39
2022/03/12 08:26:24;;;;;;;6.93;2.58;;;13.20;98.80;;;;;;4988867;28;20340;-39
2022/03/12 08:28:53;;;;;;;6.22;2.70;;;13.20;99.00;;;;;;5008578;28;20233;-39
2022/03/12 08:31:21;;;;;;;5.20;2.50;;;13.20;98.90;;;;;;5002801;28;20348;-39
2022/03/12 08:33:49;;;;;;;3.90;2.50;;;13.30;99.00;;;;;;4987997;28;20292;-39
2022/03/12 08:36:18;;;;;;;7.00;2.63;;;13.30;99.10;;;;;;4984834;28;20221;-40
2022/03/12 08:38:47;;;;;;;5.40;2.20;;;13.40;99.40;;;;;;4988312;28;20206;-39
2022/03/12 08:41:21;;;;;;;4.53;2.33;;;13.40;99.00;;;;;;4988115;28;20648;-39
2022/03/12 08:43:54;;;;;;;5.00;2.40;;;13.40;99.00;;;;;;5002008;28;20210;-39
2022/03/12 08:46:23;;;;;;;9.80;2.63;;;13.50;99.00;;;;;;4991172;28;20226;-40
2022/03/12 08:48:54;;;;;;;7.00;2.50;;;13.50;99.10;;;;;;5007557;28;20229;-40
2022/03/12 08:51:21;;;;;;;4.22;2.10;;;13.50;99.10;;;;;;5002584;28;20206;-40
2022/03/12 08:53:51;;;;;;;4.77;2.13;;;13.60;99.00;;;;;;5001598;28;20299;-40
2022/03/12 08:56:21;;;;;;;6.17;2.03;;;13.60;99.00;;;;;;5001992;28;20226;-40
2022/03/12 08:58:48;;;;;;;8.02;2.35;;;13.60;99.10;;;;;;4994761;28;20225;-40
2022/03/12 09:01:21;;;;;;;4.03;1.92;;;13.60;99.10;;;;;;4967973;28;20217;-39
2022/03/12 09:03:56;;;;;;;5.07;2.27;;;13.70;99.10;;;;;;4989574;28;20217;-40
2022/03/12 09:06:32;;;;;;;4.18;2.28;;;13.70;99.40;;;;;;5006541;28;20226;-40
2022/03/12 09:08:59;;;;;;;4.27;2.00;;;13.80;99.20;;;;;;5004369;28;20206;-39
2022/03/12 09:11:30;;;;;;;11.00;2.30;;;13.80;99.20;;;;;;4977261;28;20209;-39
2022/03/12 09:13:57;;;;;;;3.78;2.10;;;13.80;99.20;;;;;;4994723;28;20260;-39
2022/03/12 09:16:27;;;;;;;4.95;2.15;;;13.80;99.40;;;;;;4992586;28;20246;-39
2022/03/12 09:18:54;;;;;;;7.33;2.47;;;13.90;99.20;;;;;;5000042;28;20220;-39
2022/03/12 09:21:21;;;;;;;7.70;2.37;;;13.90;99.20;;;;;;5004133;28;20313;-39
2022/03/12 09:23:49;;;;;;;7.33;2.27;;;13.90;99.20;;;;;;5006586;28;20215;-39
2022/03/12 09:26:19;;;;;;;6.13;2.73;;;14.00;99.50;;;;;;4988509;28;20293;-39
2022/03/12 09:28:48;;;;;;;8.30;2.77;;;14.00;99.20;;;;;;4996406;28;20252;-39
2022/03/12 09:31:16;;;;;;;5.03;2.50;;;14.00;99.10;;;;;;5005054;28;20206;-39
2022/03/12 09:33:43;;;;;;;4.00;2.13;;;14.00;99.20;;;;;;4995165;28;20290;-39
2022/03/12 09:36:10;;;;;;;4.68;2.13;;;14.00;99.20;;;;;;4993468;28;20253;-39
2022/03/12 09:38:39;;;;;;;4.93;2.20;;;14.10;99.20;;;;;;4977854;28;20210;-39
2022/03/12 09:41:06;;;;;;;3.27;1.90;;;14.10;99.20;;;;;;5002395;28;20642;-44
2022/03/12 09:43:34;;;;;;;4.70;2.47;;;14.10;99.20;;;;;;4998632;28;20217;-39
2022/03/12 09:46:01;;;;;;;5.20;2.00;;;14.10;99.20;;;;;;5002423;28;20225;-40
2022/03/12 09:48:28;;;;;;;4.97;2.10;;;14.20;99.30;;;;;;4997167;28;20672;-39
2022/03/12 09:50:56;;;;;;;4.33;1.90;;;14.20;99.30;;;;;;4983398;28;20609;-39
2022/03/12 09:53:23;;;;;;;6.60;2.27;;;14.20;99.30;;;;;;4997494;28;20245;-40
2022/03/12 09:55:51;;;;;;;4.85;2.45;;;14.30;99.30;;;;;;4989867;28;20229;-40
2022/03/12 09:58:19;;;;;;;5.57;2.20;;;14.40;99.30;;;;;;4994228;28;20694;-40
2022/03/12 10:00:46;;;;;;;6.13;2.17;;;14.40;99.30;;;;;;4992327;28;20198;-40
2022/03/12 10:03:13;;;;;;;4.00;2.03;;;14.40;99.30;;;;;;4986113;28;20213;-40
2022/03/12 10:05:43;;;;;;;5.03;1.87;;;14.50;99.40;;;;;;4996477;28;20722;-40
2022/03/12 10:08:13;;;;;;;5.00;2.17;;;14.50;99.40;;;;;;4986079;28;20198;-40
2022/03/12 10:10:40;;;;;;;3.42;2.10;;;14.50;99.40;;;;;;4993883;28;20201;-40
2022/03/12 10:13:10;;;;;;;4.40;1.98;;;14.60;99.40;;;;;;4988580;28;20309;-40
2022/03/12 10:15:40;;;;;;;4.60;2.17;;;14.60;99.40;;;;;;4999738;28;20249;-40
2022/03/12 10:18:10;;;;;;;4.88;1.90;;;14.70;99.50;;;;;;4997424;28;20595;-40
2022/03/12 10:20:40;;;;;;;2.83;1.70;;;14.70;99.40;;;;;;4993512;28;20203;-41
2022/03/12 10:23:07;;;;;;;4.17;1.83;;;14.70;99.40;;;;;;4989147;28;20229;-41
2022/03/12 10:25:35;;;;;;;4.53;2.08;;;14.80;99.40;;;;;;5007583;28;20249;-40
2022/03/12 10:28:05;;;;;;;3.38;1.80;;;14.80;99.40;;;;;;5002037;28;20313;-41
2022/03/12 10:30:34;;;;;;;3.75;1.70;;;14.80;99.40;;;;;;5009090;28;20297;-41
2022/03/12 10:33:07;;;;;;;6.00;2.05;;;14.90;99.40;;;;;;4996545;28;20203;-41
2022/03/12 10:35:38;;;;;;;3.42;1.70;;;14.90;99.40;;;;;;4996986;28;21054;-41
2022/03/12 10:38:12;;;;;;;3.35;1.80;;;14.90;99.50;;;;;;5009308;28;20293;-41
2022/03/12 10:40:42;;;;;;;7.73;2.20;;;15.00;99.40;;;;;;4992481;28;20222;-40
2022/03/12 10:43:15;;;;;;;6.40;2.20;;;15.00;99.50;;;;;;4998756;28;20209;-41
2022/03/12 10:45:47;;;;;;;4.68;2.10;;;15.00;99.50;;;;;;4982089;28;20225;-40
2022/03/12 10:48:22;;;;;;;6.20;1.98;;;15.10;99.50;;;;;;4994621;28;20660;-40
2022/03/12 10:50:50;;;;;;;3.00;1.70;;;15.10;99.40;;;;;;5002981;28;20725;-41
2022/03/12 10:53:18;;;;;;;4.50;2.22;;;15.10;99.40;;;;;;4982826;28;20236;-40
2022/03/12 10:55:50;;;;;;;5.38;1.55;;;15.20;99.40;;;;;;5000986;28;20260;-41
2022/03/12 10:58:26;;;;;;;6.20;2.00;;;15.20;99.70;;;;;;4974689;28;20300;-40
2022/03/12 11:01:01;;;;;;;4.90;1.80;;;15.20;99.30;;;;;;4992679;28;20216;-41
2022/03/12 11:03:37;;;;;;;5.37;1.50;;;15.20;99.30;;;;;;5003079;28;20209;-40
2022/03/12 11:06:10;;;;;;;5.93;1.98;;;15.30;99.30;;;;;;4981058;28;20329;-40
2022/03/12 11:08:39;;;;;;;3.38;1.58;;;15.30;99.30;;;;;;4993226;28;20284;-40
2022/03/12 11:11:11;;;;;;;7.00;1.92;;;15.30;99.20;;;;;;4997308;28;20212;-41
2022/03/12 11:13:48;;;;;;;6.53;1.88;;;15.30;99.30;;;;;;4991650;28;20646;-41
2022/03/12 11:16:32;;;;;;;5.50;1.90;;;15.40;99.40;;;;;;5003338;28;20217;-41
2022/03/12 11:19:07;;;;;;;4.90;1.60;;;15.50;99.40;;;;;;4990756;28;20208;-38
2022/03/12 11:21:44;;;;;;;5.53;2.10;;;15.50;99.40;;;;;;5005559;28;20209;-41
2022/03/12 11:24:42;;;;;;;7.87;2.40;;;15.50;99.40;;;;;;5007343;28;20197;-41
2022/03/12 11:27:14;;;;;;;3.42;1.55;;;15.60;99.30;;;;;;4993218;28;20272;-36
2022/03/12 11:29:41;;;;;;;5.40;1.88;;;15.60;99.30;;;;;;5003281;28;20687;-33
2022/03/12 11:32:09;;;;;;;4.70;1.60;;;15.60;99.30;;;;;;4988480;28;20205;-33
2022/03/12 11:34:39;;;;;;;4.53;1.40;;;15.60;99.30;;;;;;4996930;28;20218;-33
2022/03/12 11:37:21;;;;;;;5.87;1.60;;;15.70;99.30;;;;;;4991191;28;20780;-33
2022/03/12 11:39:55;;;;;;;4.73;1.70;;;15.70;99.20;;;;;;4991740;28;20197;-31
2022/03/12 11:42:29;;;;;;;8.85;2.70;;;15.80;99.20;;;;;;5004051;28;20214;-33
2022/03/12 11:45:01;;;;;;;18.10;2.97;;;15.80;99.10;;;;;;4997633;28;20240;-33
2022/03/12 11:47:29;;;;;;;3.50;1.40;;;15.80;99.10;;;;;;4993156;28;20225;-32
2022/03/12 11:50:01;;;;;;;7.57;1.50;;;15.80;99.10;;;;;;4990836;28;20237;-32
2022/03/12 11:52:29;;;;;;;7.88;1.80;;;15.80;99.10;;;;;;5007533;28;20218;-33
2022/03/12 11:55:02;;;;;;;6.18;1.67;;;15.80;99.20;;;;;;4999860;28;20210;-33
2022/03/12 11:57:32;;;;;;;5.88;1.70;;;15.90;99.30;;;;;;5007668;28;20275;-32
2022/03/12 12:00:11;;;;;;;6.75;1.80;;;15.90;99.30;;;;;;4997462;28;20221;-32
2022/03/12 12:02:40;;;;;;;6.45;1.73;;;16.00;99.40;;;;;;4980506;28;20324;-32
2022/03/12 12:05:12;;;;;;;4.05;1.40;;;16.10;99.50;;;;;;4999513;28;20205;-32
2022/03/12 12:07:43;;;;;;;5.28;1.80;;;16.10;99.50;;;;;;5003941;28;20225;-32
2022/03/12 12:10:19;;;;;;;6.03;1.65;;;16.20;99.50;;;;;;4998806;28;20205;-32
2022/03/12 12:12:51;;;;;;;6.38;1.60;;;16.30;99.40;;;;;;5003286;28;20652;-32
2022/03/12 12:15:34;;;;;;;4.70;1.48;;;16.30;99.60;;;;;;4999801;28;20225;-33
2022/03/12 12:18:03;;;;;;;3.90;1.40;;;16.40;99.60;;;;;;4987127;28;20217;-32
2022/03/12 12:20:34;;;;;;;6.45;1.40;;;16.50;99.60;;;;;;4989179;28;20237;-32
2022/03/12 12:23:04;;;;;;;3.55;1.50;;;16.60;99.70;;;;;;4974764;28;20223;-33
2022/03/12 12:25:34;;;;;;;2.80;1.13;;;16.60;99.70;;;;;;4984310;28;20202;-33
2022/03/12 12:28:44;;;;;;;4.70;1.60;;;16.70;99.80;;;;;;4988352;28;20230;-33
2022/03/12 12:31:27;;;;;;;4.30;1.52;;;16.70;99.70;;;;;;4987520;28;20560;-33
2022/03/12 12:34:04;;;;;;;4.88;1.40;;;16.70;99.70;;;;;;4989575;28;20232;-33
2022/03/12 12:36:35;;;;;;;3.95;1.50;;;16.80;99.70;;;;;;4994225;28;20237;-33
2022/03/12 12:39:02;;;;;;;5.25;1.40;;;16.80;99.80;;;;;;4988515;28;20214;-33
2022/03/12 12:41:58;;;;;;;5.18;1.65;;;16.80;99.80;;;;;;5001388;28;20273;-33
2022/03/12 12:44:43;;;;;;;5.35;1.67;;;16.90;99.90;;;;;;4994893;28;20214;-33
2022/03/12 12:47:22;;;;;;;9.02;2.20;;;16.90;99.70;;;;;;4995872;28;20229;-33
2022/03/12 12:49:54;;;;;;;4.22;1.60;;;16.90;99.80;;;;;;4988551;28;20198;-33
2022/03/12 12:52:23;;;;;;;3.38;1.55;;;17.00;99.90;;;;;;4989417;28;20206;-33
2022/03/12 12:54:57;;;;;;;6.95;2.00;;;17.00;99.90;;;;;;4987511;28;20615;-33
2022/03/12 12:57:47;;;;;;;6.05;1.90;;;17.00;99.90;;;;;;4999712;28;20672;-33
2022/03/12 13:00:20;;;;;;;5.78;1.63;;;17.10;99.90;;;;;;5005071;28;20197;-33
2022/03/12 13:02:52;;;;;;;3.97;1.40;;;17.10;99.90;;;;;;4992681;28;20309;-33
2022/03/12 13:05:43;;;;;;;5.57;1.40;;;17.20;99.90;;;;;;4987543;28;20210;-33
2022/03/12 13:08:13;;;;;;;5.25;1.83;;;17.20;99.70;;;;;;4999890;28;20238;-33